LFML/MRS METAR and TAF weather

Enter ICAO airport designator
Station Type Date Time Source
LFML METAR 2019/10/23 07:30 UTC NOAA

LFML 230730Z AUTO 10019G29KT 9999 FEW016 OVC062 24/11 Q1009 TEMPO BKN020TCU


Station Type Date Time Source
LFML Decoded METAR 2019/10/23 07:30 UTC NOAA

Marseille / Marignane, France (LFML) 43-27N 005-14E 36M
Oct 23, 2019 - 03:30 AM EDT / 2019.10.23 0730 UTC
Wind: from the E (100 degrees) at 22 MPH (19 KT) gusting to 33 MPH (29 KT):0
Visibility: greater than 7 mile(s):0
Sky conditions: overcast
Weather: Towering cumulus clouds observed
Temperature: 75 F (24 C)
Dew Point: 51 F (11 C)
Relative Humidity: 43%
Pressure (altimeter): 29.80 in. Hg (1009 hPa)
ob: LFML 230730Z AUTO 10019G29KT 9999 FEW016 OVC062 24/11 Q1009 TEMPO BKN020TCU
cycle: 7

Station Type Date Time Source
LFML TAF 2019/10/23 05:57 UTC NOAA

TAF
AMD LFML 230526Z 2305/2409 10017KT CAVOK TX24/2306Z TN15/2407Z
TEMPO 2305/2310 12025G35KT -SHRA BKN020TCU
BECMG 2310/2311 12026G40KT SCT050TCU PROB40 2311/2314 12028G45KT 1000 +TSRA BKN010 BKN020CB PROB30
TEMPO 2312/2314 VRB30G50KT TSRAGR
TEMPO 2314/2318 10025G35KT 2000 TSRA SCT010 BKN016CB
BECMG 2318/2319 VRB15KT 4000 RA SCT015 BKN033TCU
BECMG 2321/2323 14010KT 9999 NSW SCT020
TEMPO 2323/2405 SHRA BKN016TCU
BECMG 2405/2407 09006KT CAVOK

Example: see airport list